Airfield :







YOU CAN JOIN US ON...

 
LOGIN :

Register | Disclaimer

   EN    FR    IT 

 









Legend :    VFR   Marginal VFR   IFR   Intensive IFR   Very Intensive IFR
Visi :
Ceiling :
>= 8 km
>= 3000ft
5 to 8 km
1000 to 3000 ft
1500m to 5 km
500 to 1000 ft
800 to 1500m
200 to 500 ft
< 800m
< 200 ft
Symbols :   Thunderstorms  Fog  Heavy snow  Heavy precipitations  Wind > 20 kt







- Airport Elevation : 232 ft
- IATA code : YQM


CYQM - Greater Moncton International

CURRENT METAR :
  • 171900Z 22010G15KT 7SM -SHRA SCT030TCU BKN095 OVC220 23/23 A2975 RMK TCU4AC3CI1 SLP077 DENSITY ALT 1500FT

EXPIRED METARs :
  • 171844Z 23010G25KT 7SM -SHRA BKN027TCU BKN095 OVC200 23/22 A2976 RMK TCU5AC2CI1 SLP079 DENSITY ALT 1500FT
  • 171837Z 22017G25KT 3SM SHRA BR BKN025TCU BKN070 OVC220 24/21 A2976 RMK TCU5AC2CI1 SLP078 DENSITY ALT 1600FT
  • 171800Z 22013G21KT 15SM BKN025TCU BKN055 OVC150 26/21 A2976 RMK TCU5SC2AS1 SLP078 DENSITY ALT 1800FT
  • 171700Z 24013G18KT 15SM SCT040 BKN070 BKN250 28/21 A2975 RMK CU4AC1CI2 SLP075 DENSITY ALT 2000FT
  • 171600Z 22014KT 15SM FEW035 FEW055 BKN120 BKN220 28/20 A2976 RMK CU1SC1AC4CI2 CU TR SLP079 DENSITY ALT 2000FT

TAF TAF CYQM
Valid from the 17 at 18:00 until the 18 at 18:00 UTC


171738Z 1718/1818 23012G22KT P6SM SCT040 BKN070
TEMPO 1718/1720 P6SM -SHRA BKN040 BKN070
FM172000 23012G22KT P6SM BKN040
TEMPO 1720/1802 5SM SHRA BR BKN020 OVC040
PROB30 1720/1802 VRB15G25KT 2SM TSRA BR BKN009 OVC020CB
FM180200 26008KT 5SM -DZ BR BKN008 OVC030
FM180500 30010KT P6SM SCT050
FM181200 35008KT P6SM SKC
BECMG 1816/1818 24010KT RMK NXT FCST BY 180000Z
CZQM FIR / North America



MET'MAP, your aeronautical weather chart ! - Copyright ORBIFLY December 2007 - Disclaimer

ORBIFLY MET'MAP TEAM :

Programming & Development : Alexandra Zaïnal
Concept & Development : Baudouin d'Aumeries
Co-Development & Prog : Marc-Olivier Méhu
Technical & hardware support : Manuel Goepfert

Contact : metmap@orbifly.com




SOURCES & CREDITS :

   NOAA